LFRS/NTE METAR and TAF weather

Enter ICAO airport designator
Station Type Date Time Source
LFRS METAR 2021/05/11 17:00 UTC NOAA

LFRS 111700Z AUTO 23010KT 200V270 9999 SCT029/// SCT037/// BKN050/// ///TCU 13/08 Q1013 TEMPO 4000 SHRA BECMG 24015G27KT


Station Type Date Time Source
LFRS Decoded METAR 2021/05/11 17:00 UTC NOAA

Nantes, France (LFRS) 47-10N 001-36W 27M
May 11, 2021 - 01:00 PM EDT / 2021.05.11 1700 UTC
Wind: from the SW (230 degrees) at 12 MPH (10 KT) (direction variable):0
Visibility: greater than 7 mile(s):0
Sky conditions: mostly cloudy
Weather: Towering cumulus clouds observed
Temperature: 55 F (13 C)
Dew Point: 46 F (8 C)
Relative Humidity: 71%
Pressure (altimeter): 29.91 in. Hg (1013 hPa)
ob: LFRS 111700Z AUTO 23010KT 200V270 9999 SCT029/// SCT037/// BKN050/// ///TCU 13/08 Q1013 TEMPO 4000 SHRA BECMG 24015G27KT
cycle: 17

Station Type Date Time Source
LFRS TAF 2021/05/11 12:42 UTC NOAA

TAF LFRS 111100Z 1112/1218 24015KT 9999 SCT030
BECMG 1123/1201 15005KT
TEMPO 1112/1203 VRB15G25KT 4000 SHRA BKN025CB PROB40
TEMPO 1112/1116 VRB20G35KT 2000 TSRA BKN020CB
BECMG 1204/1206 4500 -RA
TEMPO 1206/1209 RA BKN012 BKN040
FM120900 17010KT 9999 SCT020 BKN050
TEMPO 1213/1218 16015G25KT 4000 RA BKN012 SCT020CB PROB30
TEMPO 1215/1218 VRB20G30KT 2500 TSRA BKN009 BKN015CB

Example: see airport list